createdAt,value
2018-03-29T00:00:57.976Z,2.85
2018-03-29T00:01:58.381Z,2.76
2018-03-29T00:02:58.562Z,2.83
2018-03-29T00:03:58.665Z,2.8
2018-03-29T00:04:58.687Z,2.73
2018-03-29T00:05:58.834Z,2.84
2018-03-29T00:06:58.837Z,2.73
2018-03-29T00:07:59.297Z,2.85
2018-03-29T00:08:59.394Z,2.84
2018-03-29T00:09:59.530Z,2.73
2018-03-29T00:10:59.934Z,2.84
2018-03-29T00:11:59.780Z,2.81
2018-03-29T00:12:59.935Z,2.9
2018-03-29T00:13:59.951Z,2.84
2018-03-29T00:15:00.331Z,2.88
2018-03-29T00:16:00.067Z,2.81
2018-03-29T00:17:00.437Z,2.84
2018-03-29T00:18:00.588Z,2.88
2018-03-29T00:19:00.428Z,2.84
2018-03-29T00:20:01.311Z,2.83
2018-03-29T00:21:01.049Z,2.93
2018-03-29T00:22:01.166Z,2.87
2018-03-29T00:23:00.758Z,2.93
2018-03-29T00:24:01.303Z,2.85
2018-03-29T00:25:01.152Z,2.85
2018-03-29T00:26:01.154Z,2.88
2018-03-29T00:27:01.185Z,2.88
2018-03-29T00:28:01.281Z,2.84
2018-03-29T00:29:21.099Z,2.85
2018-03-29T00:30:20.829Z,2.98
2018-03-29T00:31:21.105Z,2.91
2018-03-29T00:32:20.864Z,2.98
2018-03-29T00:33:20.935Z,2.95
2018-03-29T00:34:20.931Z,2.9
2018-03-29T00:35:21.292Z,2.98
2018-03-29T00:36:21.437Z,2.93
2018-03-29T00:37:20.952Z,2.98
2018-03-29T00:38:21.033Z,2.95
2018-03-29T00:39:21.336Z,2.95
2018-03-29T00:40:21.450Z,2.93
2018-03-29T00:41:21.373Z,2.95
2018-03-29T00:42:21.339Z,2.99
2018-03-29T00:43:21.108Z,2.98
2018-03-29T00:44:21.441Z,2.98
2018-03-29T00:45:21.264Z,3.01
2018-03-29T00:46:21.432Z,2.98
2018-03-29T00:47:21.448Z,2.95
2018-03-29T00:48:21.588Z,2.99
2018-03-29T00:49:21.537Z,3.02
2018-03-29T00:50:21.739Z,3.03
2018-03-29T00:51:21.348Z,3.02
2018-03-29T00:52:21.336Z,3.11
2018-03-29T00:53:21.621Z,3.08
2018-03-29T00:54:21.695Z,3.01
2018-03-29T00:55:21.754Z,3.11
2018-03-29T00:56:21.364Z,2.98
2018-03-29T00:57:21.448Z,2.99
2018-03-29T00:58:21.756Z,2.99
2018-03-29T00:59:21.593Z,3.05
2018-03-29T01:00:25.109Z,3.08
2018-03-29T01:01:24.877Z,3.09
2018-03-29T01:02:24.897Z,3.09
2018-03-29T01:03:25.411Z,3.08
2018-03-29T01:04:25.424Z,3.16
2018-03-29T01:05:25.921Z,3.09
2018-03-29T01:06:25.910Z,3.13
2018-03-29T01:07:26.396Z,3.16
2018-03-29T01:08:26.142Z,3.16
2018-03-29T01:09:26.659Z,3.09
2018-03-29T01:10:26.408Z,3.14
2018-03-29T01:11:26.633Z,3.09
2018-03-29T01:12:26.930Z,3.19
2018-03-29T01:13:26.947Z,3.13
2018-03-29T01:14:26.965Z,3.2
2018-03-29T01:15:27.005Z,3.19
2018-03-29T01:16:27.018Z,3.16
2018-03-29T01:17:27.040Z,3.14
2018-03-29T01:18:26.799Z,3.17
2018-03-29T01:19:26.820Z,3.26
2018-03-29T01:20:27.059Z,3.17
2018-03-29T01:21:27.448Z,3.17
2018-03-29T01:22:27.137Z,3.23
2018-03-29T01:23:27.135Z,3.16
2018-03-29T01:24:27.657Z,3.2
2018-03-29T01:25:27.662Z,3.23
2018-03-29T01:26:27.419Z,3.2
2018-03-29T01:27:27.712Z,3.2
2018-03-29T01:28:27.478Z,3.16
2018-03-29T01:29:27.403Z,3.26
2018-03-29T01:30:28.411Z,3.21
2018-03-29T01:31:27.944Z,3.16
2018-03-29T01:32:28.472Z,3.21
2018-03-29T01:33:28.507Z,3.19
2018-03-29T01:34:28.021Z,3.27
2018-03-29T01:35:28.778Z,3.29
2018-03-29T01:36:29.079Z,3.17
2018-03-29T01:37:28.821Z,3.3
2018-03-29T01:38:29.112Z,3.34
2018-03-29T01:39:28.861Z,3.2
2018-03-29T01:40:29.079Z,3.3
2018-03-29T01:41:29.365Z,3.34
2018-03-29T01:42:29.399Z,3.19
2018-03-29T01:43:29.426Z,3.3
2018-03-29T01:44:29.168Z,3.2
2018-03-29T01:45:29.195Z,3.23
2018-03-29T01:46:29.218Z,3.37
2018-03-29T01:47:29.442Z,3.4
2018-03-29T01:48:29.732Z,3.34
2018-03-29T01:49:29.772Z,3.3
2018-03-29T01:50:29.881Z,3.42
2018-03-29T01:51:29.819Z,3.42
2018-03-29T01:52:29.557Z,3.4
2018-03-29T01:53:29.853Z,3.4
2018-03-29T01:54:29.880Z,3.37
2018-03-29T01:55:29.901Z,3.37
2018-03-29T01:56:29.654Z,3.43
2018-03-29T01:57:29.953Z,3.35
2018-03-29T01:58:29.973Z,3.46
2018-03-29T01:59:29.987Z,3.42
2018-03-29T02:00:29.438Z,3.53
2018-03-29T02:01:30.210Z,3.37
2018-03-29T02:02:30.620Z,3.45
2018-03-29T02:03:30.995Z,3.48
2018-03-29T02:04:31.390Z,3.42
2018-03-29T02:05:31.398Z,3.39
2018-03-29T02:06:31.434Z,3.49
2018-03-29T02:07:31.453Z,3.56
2018-03-29T02:08:31.475Z,3.51
2018-03-29T02:09:31.509Z,3.72
2018-03-29T02:10:31.530Z,3.82
2018-03-29T02:11:31.558Z,3.84
2018-03-29T02:12:31.671Z,3.92
2018-03-29T02:13:31.681Z,3.86
2018-03-29T02:14:32.043Z,3.93
2018-03-29T02:15:32.168Z,3.86
2018-03-29T02:16:31.940Z,3.97
2018-03-29T02:17:32.587Z,3.99
2018-03-29T02:18:32.344Z,3.94
2018-03-29T02:19:32.630Z,3.92
2018-03-29T02:20:32.666Z,3.92
2018-03-29T02:21:32.774Z,3.92
2018-03-29T02:22:32.879Z,3.96
2018-03-29T02:23:32.644Z,3.94
2018-03-29T02:24:33.302Z,3.92
2018-03-29T02:25:33.316Z,3.96
2018-03-29T02:26:33.067Z,3.99
2018-03-29T02:27:33.722Z,3.99
2018-03-29T02:28:33.740Z,4.03
2018-03-29T02:29:33.237Z,3.94
2018-03-29T02:30:33.509Z,4.02
2018-03-29T02:31:33.885Z,3.94
2018-03-29T02:32:33.629Z,3.96
2018-03-29T02:33:34.045Z,3.96
2018-03-29T02:34:34.077Z,3.97
2018-03-29T02:35:33.538Z,3.94
2018-03-29T02:36:34.125Z,3.96
2018-03-29T02:37:34.133Z,4.03
2018-03-29T02:38:34.147Z,4.03
2018-03-29T02:39:34.282Z,4.02
2018-03-29T02:40:34.040Z,4.04
2018-03-29T02:41:34.465Z,4.14
2018-03-29T02:42:34.502Z,4.18
2018-03-29T02:43:34.883Z,4.21
2018-03-29T02:44:35.275Z,4.22
2018-03-29T02:45:35.279Z,4.29
2018-03-29T02:46:35.120Z,4.32
2018-03-29T02:47:35.709Z,4.36
2018-03-29T02:48:35.715Z,4.38
2018-03-29T02:49:36.130Z,4.36
2018-03-29T02:50:36.503Z,4.36
2018-03-29T02:51:36.265Z,4.48
2018-03-29T02:52:36.553Z,4.38
2018-03-29T02:53:36.305Z,4.54
2018-03-29T02:54:36.582Z,4.44
2018-03-29T02:55:36.625Z,4.53
2018-03-29T02:56:36.636Z,4.56
2018-03-29T02:57:36.659Z,4.58
2018-03-29T02:58:36.424Z,4.58
2018-03-29T02:59:36.835Z,4.65
2018-03-29T03:00:37.489Z,4.64
2018-03-29T03:01:37.515Z,4.74
2018-03-29T03:02:37.544Z,4.79
2018-03-29T03:03:37.657Z,4.76
2018-03-29T03:04:38.060Z,4.75
2018-03-29T03:05:38.081Z,4.75
2018-03-29T03:06:38.364Z,4.76
2018-03-29T03:07:38.761Z,4.85
2018-03-29T03:08:39.176Z,4.87
2018-03-29T03:09:39.176Z,4.85
2018-03-29T03:10:38.938Z,4.91
2018-03-29T03:11:39.066Z,4.95
2018-03-29T03:12:39.376Z,4.94
2018-03-29T03:13:39.392Z,4.9
2018-03-29T03:14:39.503Z,4.87
2018-03-29T03:15:39.529Z,4.98
2018-03-29T03:16:39.829Z,5.03
2018-03-29T03:17:39.923Z,5.08
2018-03-29T03:18:40.582Z,5.03
2018-03-29T03:19:40.600Z,5.09
2018-03-29T03:20:40.632Z,5.09
2018-03-29T03:21:40.757Z,5.05
2018-03-29T03:22:41.058Z,5.06
2018-03-29T03:23:41.068Z,5.05
2018-03-29T03:24:40.829Z,5.15
2018-03-29T03:25:41.502Z,5.02
2018-03-29T03:26:41.517Z,5.06
2018-03-29T03:27:41.927Z,5.09
2018-03-29T03:28:41.945Z,5.06
2018-03-29T03:29:41.974Z,5.08
2018-03-29T03:30:41.723Z,5.06
2018-03-29T03:31:41.916Z,5.02
2018-03-29T03:32:42.323Z,5.06
2018-03-29T03:33:42.100Z,5
2018-03-29T03:34:42.474Z,4.9
2018-03-29T03:35:42.524Z,4.91
2018-03-29T03:36:42.607Z,4.88
2018-03-29T03:37:42.745Z,4.91
2018-03-29T03:38:43.303Z,4.91
2018-03-29T03:39:43.396Z,4.87
2018-03-29T03:40:43.508Z,4.84
2018-03-29T03:41:43.938Z,4.85
2018-03-29T03:42:43.898Z,4.88
2018-03-29T03:43:44.303Z,4.84
2018-03-29T03:44:44.709Z,4.83
2018-03-29T03:45:45.069Z,4.75
2018-03-29T03:46:45.239Z,4.9
2018-03-29T03:47:45.635Z,4.75
2018-03-29T03:48:46.262Z,4.74
2018-03-29T03:49:46.462Z,4.76
2018-03-29T03:50:46.210Z,4.74
2018-03-29T03:51:46.666Z,4.83
2018-03-29T03:52:47.133Z,4.85
2018-03-29T03:53:46.876Z,4.76
2018-03-29T03:54:47.534Z,4.78
2018-03-29T03:55:47.436Z,4.78
2018-03-29T03:56:47.570Z,4.74
2018-03-29T03:57:48.203Z,4.78
2018-03-29T03:58:47.993Z,4.76
2018-03-29T03:59:48.390Z,4.76
2018-03-29T04:00:48.139Z,4.76
2018-03-29T04:01:48.177Z,4.78
2018-03-29T04:02:48.287Z,4.69
2018-03-29T04:03:48.154Z,4.87
2018-03-29T04:04:48.975Z,4.84
2018-03-29T04:05:49.063Z,4.78
2018-03-29T04:06:48.814Z,4.75
2018-03-29T04:07:49.459Z,4.79
2018-03-29T04:08:49.539Z,4.74
2018-03-29T04:09:49.830Z,4.71
2018-03-29T04:10:49.863Z,4.76
2018-03-29T04:11:49.971Z,4.76
2018-03-29T04:12:49.984Z,4.74
2018-03-29T04:13:50.344Z,4.75
2018-03-29T04:14:50.205Z,4.78
2018-03-29T04:15:50.874Z,4.72
2018-03-29T04:16:51.015Z,4.78
2018-03-29T04:17:50.744Z,4.76
2018-03-29T04:18:50.777Z,4.74
2018-03-29T04:19:50.895Z,4.75
2018-03-29T04:20:51.334Z,4.75
2018-03-29T04:21:51.743Z,4.75
2018-03-29T04:22:51.503Z,4.69
2018-03-29T04:23:51.771Z,4.6
2018-03-29T04:24:51.880Z,4.68
2018-03-29T04:25:51.561Z,4.64
2018-03-29T04:26:51.958Z,4.66
2018-03-29T04:27:52.101Z,4.68
2018-03-29T04:28:52.479Z,4.6
2018-03-29T04:29:52.873Z,4.57
2018-03-29T04:30:52.957Z,4.51
2018-03-29T04:31:53.315Z,4.58
2018-03-29T04:32:53.088Z,4.54
2018-03-29T04:33:53.739Z,4.57
2018-03-29T04:34:54.045Z,4.47
2018-03-29T04:35:53.521Z,4.53
2018-03-29T04:36:54.167Z,4.56
2018-03-29T04:37:54.558Z,4.42
2018-03-29T04:38:54.561Z,4.48
2018-03-29T04:39:54.411Z,4.4
2018-03-29T04:40:54.445Z,4.4
2018-03-29T04:41:54.742Z,4.44
2018-03-29T04:42:54.764Z,4.46
2018-03-29T04:43:54.642Z,4.35
2018-03-29T04:44:55.045Z,4.39
2018-03-29T04:45:54.805Z,4.35
2018-03-29T04:46:55.169Z,4.36
2018-03-29T04:47:54.651Z,4.36
2018-03-29T04:48:54.953Z,4.32
2018-03-29T04:49:55.600Z,4.35
2018-03-29T04:50:55.630Z,4.35
2018-03-29T04:51:55.459Z,4.36
2018-03-29T04:52:55.511Z,4.35
2018-03-29T04:53:55.681Z,4.36
2018-03-29T04:54:55.684Z,4.42
2018-03-29T04:55:56.091Z,4.4
2018-03-29T04:56:56.103Z,4.35
2018-03-29T04:57:56.111Z,4.38
2018-03-29T04:58:55.898Z,4.4
2018-03-29T04:59:56.291Z,4.36
2018-03-29T05:00:55.805Z,4.33
2018-03-29T05:01:56.114Z,4.3
2018-03-29T05:02:56.328Z,4.44
2018-03-29T05:03:56.633Z,4.35
2018-03-29T05:04:56.379Z,4.33
2018-03-29T05:05:56.674Z,4.39
2018-03-29T05:06:57.159Z,4.35
2018-03-29T05:07:56.905Z,4.39
2018-03-29T05:08:57.613Z,4.36
2018-03-29T05:09:57.218Z,4.32
2018-03-29T05:10:57.456Z,4.36
2018-03-29T05:11:57.430Z,4.3
2018-03-29T05:12:57.662Z,4.33
2018-03-29T05:13:58.160Z,4.38
2018-03-29T05:14:58.401Z,4.4
2018-03-29T05:15:58.857Z,4.35
2018-03-29T05:16:59.132Z,4.38
2018-03-29T05:17:58.886Z,4.33
2018-03-29T05:18:59.364Z,4.33
2018-03-29T05:19:59.381Z,4.38
2018-03-29T05:20:59.421Z,4.35
2018-03-29T05:21:58.921Z,4.36
2018-03-29T05:22:59.473Z,4.39
2018-03-29T05:23:59.489Z,4.38
2018-03-29T05:24:59.503Z,4.35
2018-03-29T05:25:58.999Z,4.33
2018-03-29T05:26:59.496Z,4.35
2018-03-29T05:27:59.787Z,4.3
2018-03-29T05:28:59.854Z,4.33
2018-03-29T05:30:00.081Z,4.35
2018-03-29T05:30:59.586Z,4.33
2018-03-29T05:32:00.170Z,4.36
2018-03-29T05:33:00.189Z,4.32
2018-03-29T05:33:59.955Z,4.29
2018-03-29T05:34:59.979Z,4.36
2018-03-29T05:36:00.672Z,4.33
2018-03-29T05:37:00.422Z,4.35
2018-03-29T05:38:00.723Z,4.35
2018-03-29T05:39:00.159Z,4.42
2018-03-29T05:40:00.284Z,4.39
2018-03-29T05:41:01.074Z,4.38
2018-03-29T05:42:00.996Z,4.38
2018-03-29T05:43:00.953Z,4.3
2018-03-29T05:44:01.258Z,4.36
2018-03-29T05:45:01.281Z,4.33
2018-03-29T05:46:01.083Z,4.35
2018-03-29T05:47:01.928Z,4.44
2018-03-29T05:48:01.883Z,4.47
2018-03-29T05:49:01.895Z,4.47
2018-03-29T05:50:01.923Z,4.47
2018-03-29T05:51:01.698Z,4.48
2018-03-29T05:52:02.228Z,4.57
2018-03-29T05:53:01.709Z,4.53
2018-03-29T05:54:01.790Z,4.54
2018-03-29T05:55:02.545Z,4.5
2018-03-29T05:56:02.684Z,4.48
2018-03-29T05:57:02.393Z,4.53
2018-03-29T05:58:02.188Z,4.53
2018-03-29T05:59:02.455Z,4.57
2018-03-29T06:00:09.145Z,4.65
2018-03-29T06:01:02.725Z,4.66
2018-03-29T06:02:03.002Z,4.65
2018-03-29T06:03:03.581Z,4.64
2018-03-29T06:04:03.465Z,4.64
2018-03-29T06:05:03.489Z,4.65
2018-03-29T06:06:03.731Z,4.66
2018-03-29T06:07:03.835Z,4.79
2018-03-29T06:08:03.890Z,4.72
2018-03-29T06:09:04.029Z,4.72
2018-03-29T06:10:04.824Z,4.84
2018-03-29T06:11:04.782Z,4.84
2018-03-29T06:12:04.740Z,4.75
2018-03-29T06:13:04.760Z,4.79
2018-03-29T06:14:04.956Z,4.85
2018-03-29T06:15:05.474Z,4.84
2018-03-29T06:16:05.902Z,4.85
2018-03-29T06:17:05.682Z,4.88
2018-03-29T06:18:06.091Z,4.91
2018-03-29T06:19:06.138Z,4.87
2018-03-29T06:20:06.596Z,4.9
2018-03-29T06:21:06.664Z,4.84
2018-03-29T06:22:07.355Z,4.97
2018-03-29T06:23:07.171Z,5
2018-03-29T06:24:07.750Z,4.88
2018-03-29T06:25:07.890Z,4.88
2018-03-29T06:26:08.049Z,4.91
2018-03-29T06:27:08.604Z,4.91
2018-03-29T06:28:08.335Z,4.92
2018-03-29T06:29:08.776Z,4.88
2018-03-29T06:30:09.045Z,4.85
2018-03-29T06:31:09.518Z,4.91
2018-03-29T06:32:09.957Z,4.94
2018-03-29T06:33:09.826Z,4.88
2018-03-29T06:34:10.250Z,4.95
2018-03-29T06:35:10.260Z,4.88
2018-03-29T06:36:10.294Z,4.98
2018-03-29T06:37:10.424Z,5.05
2018-03-29T06:38:10.169Z,5.08
2018-03-29T06:39:10.300Z,5.05
2018-03-29T06:40:10.745Z,5.13
2018-03-29T06:41:11.420Z,5.06
2018-03-29T06:42:11.177Z,5.15
2018-03-29T06:43:11.323Z,5.15
2018-03-29T06:44:11.578Z,5.1
2018-03-29T06:45:11.901Z,5.18
2018-03-29T06:46:12.316Z,5.23
2018-03-29T06:47:12.053Z,5.28
2018-03-29T06:48:12.736Z,5.26
2018-03-29T06:49:13.114Z,5.24
2018-03-29T06:50:13.143Z,5.23
2018-03-29T06:51:12.904Z,5.24
2018-03-29T06:52:13.574Z,5.18
2018-03-29T06:53:13.594Z,5.27
2018-03-29T06:54:13.721Z,5.24
2018-03-29T06:55:13.499Z,5.28
2018-03-29T06:56:13.795Z,5.21
2018-03-29T06:57:13.810Z,5.3
2018-03-29T06:58:13.840Z,5.28
2018-03-29T06:59:14.232Z,5.37
2018-03-29T07:00:14.570Z,5.39
2018-03-29T07:01:14.473Z,5.33
2018-03-29T07:02:14.492Z,5.36
2018-03-29T07:03:14.854Z,5.37
2018-03-29T07:04:14.597Z,5.39
2018-03-29T07:05:15.172Z,5.36
2018-03-29T07:06:15.211Z,5.41
2018-03-29T07:07:14.962Z,5.48
2018-03-29T07:08:15.251Z,5.46
2018-03-29T07:09:15.275Z,5.46
2018-03-29T07:10:15.026Z,5.46
2018-03-29T07:11:15.616Z,5.51
2018-03-29T07:12:15.669Z,5.41
2018-03-29T07:13:15.685Z,5.42
2018-03-29T07:14:15.496Z,5.49
2018-03-29T07:15:15.733Z,5.57
2018-03-29T07:16:15.526Z,5.48
2018-03-29T07:17:15.861Z,5.55
2018-03-29T07:18:15.609Z,5.62
2018-03-29T07:19:15.644Z,5.67
2018-03-29T07:20:15.721Z,5.7
2018-03-29T07:21:16.024Z,5.67
2018-03-29T07:22:16.059Z,5.63
2018-03-29T07:23:15.793Z,5.69
2018-03-29T07:24:16.114Z,5.85
2018-03-29T07:25:16.125Z,5.8
2018-03-29T07:26:16.174Z,5.82
2018-03-29T07:27:16.195Z,5.87
2018-03-29T07:28:16.213Z,5.95
2018-03-29T07:29:16.009Z,5.88
2018-03-29T07:30:16.579Z,5.87
2018-03-29T07:31:16.590Z,5.89
2018-03-29T07:32:16.350Z,5.88
2018-03-29T07:33:16.375Z,6.07
2018-03-29T07:34:16.431Z,6.1
2018-03-29T07:35:16.751Z,6.17
2018-03-29T07:36:17.060Z,6.15
2018-03-29T07:37:17.088Z,6.2
2018-03-29T07:38:16.553Z,6.13
2018-03-29T07:39:17.150Z,6.15
2018-03-29T07:40:16.626Z,6.17
2018-03-29T07:41:17.496Z,6.25
2018-03-29T07:42:17.512Z,6.29
2018-03-29T07:43:17.293Z,6.42
2018-03-29T07:44:17.726Z,6.51
2018-03-29T07:45:17.629Z,6.61
2018-03-29T07:46:17.653Z,6.64
2018-03-29T07:47:17.728Z,6.82
2018-03-29T07:48:17.720Z,6.85
2018-03-29T07:49:17.755Z,6.94
2018-03-29T07:50:17.768Z,6.7
2018-03-29T07:51:17.809Z,6.7
2018-03-29T07:52:17.832Z,6.57
2018-03-29T07:53:17.692Z,6.62
2018-03-29T07:54:17.878Z,6.6
2018-03-29T07:55:17.628Z,6.65
2018-03-29T07:56:18.210Z,6.76
2018-03-29T07:57:18.244Z,6.85
2018-03-29T07:58:18.295Z,6.86
2018-03-29T07:59:18.319Z,6.83
2018-03-29T08:00:18.137Z,6.79
2018-03-29T08:01:18.442Z,6.64
2018-03-29T08:02:18.758Z,6.54
2018-03-29T08:03:18.824Z,6.54
2018-03-29T08:04:18.599Z,6.43
2018-03-29T08:05:19.155Z,6.4
2018-03-29T08:06:18.922Z,6.26
2018-03-29T08:07:18.614Z,6.24
2018-03-29T08:08:18.741Z,6.25
2018-03-29T08:09:19.406Z,6.24
2018-03-29T08:10:19.434Z,6.13
2018-03-29T08:11:19.152Z,6.21
2018-03-29T08:12:19.642Z,6.14
2018-03-29T08:13:19.678Z,6.17
2018-03-29T08:14:19.218Z,6.24
2018-03-29T08:15:20.237Z,6.15
2018-03-29T08:16:19.768Z,6.18
2018-03-29T08:17:21.239Z,6.21
2018-03-29T08:18:20.820Z,6.25
2018-03-29T08:19:20.466Z,6.29
2018-03-29T08:20:20.361Z,6.29
2018-03-29T08:21:21.015Z,6.36
2018-03-29T08:22:19.967Z,6.44
2018-03-29T08:23:20.894Z,6.42
2018-03-29T08:24:20.929Z,6.37
2018-03-29T08:25:20.701Z,6.4
2018-03-29T08:26:20.854Z,6.4
2018-03-29T08:27:20.738Z,6.39
2018-03-29T08:28:20.665Z,6.47
2018-03-29T08:29:21.258Z,6.36
2018-03-29T08:30:21.060Z,6.31
2018-03-29T08:31:21.414Z,6.28
2018-03-29T08:32:21.140Z,6.29
2018-03-29T08:33:21.509Z,6.29
2018-03-29T08:34:21.870Z,6.28
2018-03-29T08:35:21.836Z,6.29
2018-03-29T08:36:21.843Z,6.25
2018-03-29T08:37:21.638Z,6.18
2018-03-29T08:38:22.244Z,6.33
2018-03-29T08:39:21.988Z,6.26
2018-03-29T08:40:22.427Z,6.26
2018-03-29T08:41:22.473Z,6.36
2018-03-29T08:42:22.611Z,6.28
2018-03-29T08:43:22.569Z,6.28
2018-03-29T08:44:22.561Z,6.21
2018-03-29T08:45:23.484Z,6.24
2018-03-29T08:46:22.798Z,6.29
2018-03-29T08:47:23.166Z,6.31
2018-03-29T08:48:23.631Z,6.21
2018-03-29T08:49:23.640Z,6.28
2018-03-29T08:50:23.758Z,6.36
2018-03-29T08:51:24.717Z,6.39
2018-03-29T08:52:24.430Z,6.44
2018-03-29T08:53:23.947Z,6.4
2018-03-29T08:54:25.024Z,6.42
2018-03-29T08:55:24.478Z,6.44
2018-03-29T08:56:24.278Z,6.51
2018-03-29T08:57:25.107Z,6.64
2018-03-29T08:58:24.309Z,6.65
2018-03-29T08:59:26.649Z,6.6
2018-03-29T09:00:24.650Z,6.61
2018-03-29T09:01:24.731Z,6.58
2018-03-29T09:02:24.579Z,6.46
2018-03-29T09:03:25.566Z,6.54
2018-03-29T09:04:25.509Z,6.54
2018-03-29T09:05:25.880Z,6.54
2018-03-29T09:06:26.330Z,6.44
2018-03-29T09:07:25.169Z,6.4
2018-03-29T09:08:25.528Z,6.28
2018-03-29T09:09:25.363Z,6.17
2018-03-29T09:10:25.685Z,6.24
2018-03-29T09:11:25.651Z,6.4
2018-03-29T09:12:25.072Z,6.62
2018-03-29T09:13:25.594Z,6.9
2018-03-29T09:14:25.874Z,7.49
2018-03-29T09:15:25.990Z,7.92
2018-03-29T09:16:25.721Z,8.26
2018-03-29T09:17:25.512Z,8.36
2018-03-29T09:18:27.591Z,8.28
2018-03-29T09:19:26.189Z,8.22
2018-03-29T09:20:25.885Z,8.43
2018-03-29T09:21:26.444Z,8.53
2018-03-29T09:22:26.491Z,8.6
2018-03-29T09:23:26.230Z,8.82
2018-03-29T09:24:26.348Z,9.09
2018-03-29T09:25:26.636Z,9.23
2018-03-29T09:26:26.421Z,9.37
2018-03-29T09:27:26.381Z,9.2
2018-03-29T09:28:27.021Z,9.14
2018-03-29T09:29:27.153Z,9.09
2018-03-29T09:30:27.624Z,9.03
2018-03-29T09:31:27.735Z,9
2018-03-29T09:32:28.288Z,9.03
2018-03-29T09:33:28.677Z,8.89
2018-03-29T09:34:28.500Z,8.72
2018-03-29T09:35:28.678Z,8.65
2018-03-29T09:36:28.567Z,8.54
2018-03-29T09:37:28.530Z,8.42
2018-03-29T09:38:28.576Z,8.29
2018-03-29T09:39:28.338Z,8.04
2018-03-29T09:40:28.978Z,7.93
2018-03-29T09:41:28.634Z,7.93
2018-03-29T09:42:28.206Z,7.92
2018-03-29T09:43:28.821Z,8.03
2018-03-29T09:44:29.181Z,8.32
2018-03-29T09:45:28.931Z,8.62
2018-03-29T09:46:28.951Z,9.03
2018-03-29T09:47:29.225Z,9.42
2018-03-29T09:48:29.296Z,10.23
2018-03-29T09:49:29.033Z,11.33
2018-03-29T09:50:29.618Z,12.44
2018-03-29T09:51:29.647Z,12.83
2018-03-29T09:52:29.649Z,13.09
2018-03-29T09:53:29.901Z,13.2
2018-03-29T09:54:29.656Z,12.94
2018-03-29T09:55:30.466Z,12.91
2018-03-29T09:56:30.142Z,12.71
2018-03-29T09:57:30.576Z,13.4
2018-03-29T09:58:30.621Z,14.05
2018-03-29T09:59:30.801Z,14.79
2018-03-29T10:00:30.485Z,15.22
2018-03-29T10:01:30.262Z,15.16
2018-03-29T10:02:30.578Z,14.79
2018-03-29T10:03:30.919Z,14.2
2018-03-29T10:04:31.319Z,13.9
2018-03-29T10:05:30.995Z,13.45
2018-03-29T10:06:31.048Z,12.89
2018-03-29T10:07:31.357Z,12.23
2018-03-29T10:08:31.400Z,11.81
2018-03-29T10:09:31.704Z,11.31
2018-03-29T10:10:31.720Z,10.87
2018-03-29T10:11:31.489Z,10.35
2018-03-29T10:12:31.809Z,9.89
2018-03-29T10:13:31.539Z,9.56
2018-03-29T10:14:31.854Z,9.26
2018-03-29T10:15:31.884Z,8.83
2018-03-29T10:16:31.625Z,8.67
2018-03-29T10:17:31.671Z,8.52
2018-03-29T10:18:31.975Z,8.49
2018-03-29T10:19:32.006Z,8.49
2018-03-29T10:20:32.071Z,8.52
2018-03-29T10:21:32.097Z,8.35
2018-03-29T10:22:32.135Z,8.26
2018-03-29T10:23:32.151Z,8.28
2018-03-29T10:24:32.188Z,8.16
2018-03-29T10:25:32.221Z,8.09
2018-03-29T10:26:31.961Z,7.95
2018-03-29T10:27:32.262Z,7.83
2018-03-29T10:28:32.290Z,7.78
2018-03-29T10:29:31.773Z,7.92
2018-03-29T10:30:32.109Z,7.82
2018-03-29T10:31:32.130Z,8.01
2018-03-29T10:32:32.470Z,7.98
2018-03-29T10:33:32.488Z,7.99
2018-03-29T10:34:32.530Z,7.93
2018-03-29T10:35:32.286Z,8.17
2018-03-29T10:36:33.155Z,8.25
2018-03-29T10:37:32.643Z,8.32
2018-03-29T10:38:33.259Z,8.35
2018-03-29T10:39:33.320Z,8.4
2018-03-29T10:40:33.916Z,8.31
2018-03-29T10:41:33.679Z,8.28
2018-03-29T10:42:33.450Z,8.25
2018-03-29T10:43:34.095Z,8.17
2018-03-29T10:44:34.139Z,8.03
2018-03-29T10:45:33.891Z,7.95
2018-03-29T10:46:34.265Z,8.1
2018-03-29T10:47:34.224Z,8.28
2018-03-29T10:48:33.969Z,8.5
2018-03-29T10:49:34.266Z,8.8
2018-03-29T10:50:34.305Z,8.98
2018-03-29T10:51:34.323Z,9.11
2018-03-29T10:52:34.159Z,9
2018-03-29T10:53:34.711Z,9.01
2018-03-29T10:54:34.456Z,8.86
2018-03-29T10:55:34.809Z,8.87
2018-03-29T10:56:35.417Z,8.9
2018-03-29T10:57:35.444Z,9.09
2018-03-29T10:58:35.482Z,9.27
2018-03-29T10:59:35.506Z,9.62
2018-03-29T11:00:35.441Z,9.89
2018-03-29T11:01:35.850Z,9.95
2018-03-29T11:02:36.261Z,10.02
2018-03-29T11:03:36.141Z,10.13
2018-03-29T11:04:36.274Z,10.08
2018-03-29T11:05:36.404Z,9.96
2018-03-29T11:06:36.949Z,10.02
2018-03-29T11:07:37.379Z,9.96
2018-03-29T11:08:37.380Z,10
2018-03-29T11:09:37.406Z,10.26
2018-03-29T11:10:37.454Z,10.7
2018-03-29T11:11:37.198Z,10.83
2018-03-29T11:12:37.348Z,10.59
2018-03-29T11:13:37.746Z,10.39
2018-03-29T11:14:38.153Z,9.95
2018-03-29T11:15:37.922Z,9.72
2018-03-29T11:16:38.280Z,9.6
2018-03-29T11:17:37.774Z,9.52
2018-03-29T11:18:38.337Z,9.44
2018-03-29T11:19:38.363Z,9.32
2018-03-29T11:20:38.768Z,9.32
2018-03-29T11:21:38.906Z,9.39
2018-03-29T11:22:38.960Z,9.21
2018-03-29T11:23:39.091Z,9.19
2018-03-29T11:24:39.502Z,9.12
2018-03-29T11:25:39.527Z,9.04
2018-03-29T11:26:39.296Z,8.92
2018-03-29T11:27:39.712Z,8.69
2018-03-29T11:28:40.125Z,8.69
2018-03-29T11:29:40.589Z,9.01
2018-03-29T11:30:40.434Z,9
2018-03-29T11:31:40.991Z,9.16
2018-03-29T11:32:40.772Z,9.05
2018-03-29T11:33:41.183Z,9.23
2018-03-29T11:34:41.465Z,9.21
2018-03-29T11:35:41.502Z,9.21
2018-03-29T11:36:41.512Z,9.19
2018-03-29T11:37:41.661Z,9.19
2018-03-29T11:38:41.432Z,9.01
2018-03-29T11:39:42.131Z,9.05
2018-03-29T11:40:42.178Z,9
2018-03-29T11:41:42.182Z,9.01
2018-03-29T11:42:42.221Z,8.92
2018-03-29T11:43:42.341Z,8.9
2018-03-29T11:44:42.495Z,8.9
2018-03-29T11:45:42.492Z,8.85
2018-03-29T11:46:43.160Z,8.8
2018-03-29T11:47:43.174Z,8.77
2018-03-29T11:48:42.962Z,8.8
2018-03-29T11:49:43.111Z,8.76
2018-03-29T11:50:43.395Z,8.68
2018-03-29T11:51:43.543Z,8.64
2018-03-29T11:52:43.945Z,8.64
2018-03-29T11:53:44.232Z,8.76
2018-03-29T11:54:44.599Z,8.77
2018-03-29T11:55:44.761Z,8.89
2018-03-29T11:56:45.178Z,8.87
2018-03-29T11:57:45.338Z,8.86
2018-03-29T11:58:46.009Z,8.87
2018-03-29T11:59:45.886Z,8.87
2018-03-29T12:00:46.501Z,8.92
2018-03-29T12:01:46.540Z,8.98
2018-03-29T12:02:46.583Z,9
2018-03-29T12:03:46.595Z,8.98
2018-03-29T12:04:46.623Z,8.92
2018-03-29T12:05:46.792Z,8.79
2018-03-29T12:06:47.210Z,8.77
2018-03-29T12:07:47.362Z,8.74
2018-03-29T12:08:47.401Z,8.65
2018-03-29T12:09:47.527Z,8.6
2018-03-29T12:10:48.104Z,8.54
2018-03-29T12:11:48.509Z,8.61
2018-03-29T12:12:48.554Z,8.54
2018-03-29T12:13:48.965Z,8.52
2018-03-29T12:14:49.614Z,8.6
2018-03-29T12:15:49.093Z,8.62
2018-03-29T12:16:49.676Z,8.61
2018-03-29T12:17:49.815Z,8.76
2018-03-29T12:18:49.616Z,8.83
2018-03-29T12:19:50.264Z,8.89
2018-03-29T12:20:50.309Z,8.98
2018-03-29T12:21:50.294Z,8.97
2018-03-29T12:22:50.451Z,9.14
2018-03-29T12:23:50.869Z,9.17
2018-03-29T12:24:50.576Z,9.2
2018-03-29T12:25:50.968Z,9.23
2018-03-29T12:26:51.002Z,9.23
2018-03-29T12:27:51.159Z,9.19
2018-03-29T12:28:51.836Z,9.34
2018-03-29T12:29:51.674Z,9.32
2018-03-29T12:30:52.256Z,9.3
2018-03-29T12:31:51.744Z,9.35
2018-03-29T12:32:52.301Z,9.32
2018-03-29T12:33:52.435Z,9.34
2018-03-29T12:34:52.788Z,9.04
2018-03-29T12:35:52.910Z,8.98
2018-03-29T12:36:53.318Z,8.94
2018-03-29T12:37:53.453Z,8.94
2018-03-29T12:38:53.459Z,8.98
2018-03-29T12:39:53.501Z,8.85
2018-03-29T12:40:53.090Z,8.98
2018-03-29T12:41:53.662Z,9.11
2018-03-29T12:42:53.542Z,9.17
2018-03-29T12:43:53.944Z,9.04
2018-03-29T12:44:54.151Z,9.23
2018-03-29T12:45:54.104Z,9.32
2018-03-29T12:46:54.301Z,9.42
2018-03-29T12:47:53.876Z,9.44
2018-03-29T12:48:53.759Z,9.48
2018-03-29T12:49:54.317Z,9.37
2018-03-29T12:50:54.731Z,9.32
2018-03-29T12:51:54.811Z,9.23
2018-03-29T12:52:54.751Z,9.14
2018-03-29T12:53:55.187Z,9.12
2018-03-29T12:54:55.148Z,8.98
2018-03-29T12:55:55.539Z,9
2018-03-29T12:56:55.538Z,8.87
2018-03-29T12:57:55.650Z,8.85
2018-03-29T12:58:56.078Z,8.79
2018-03-29T12:59:55.839Z,8.71
2018-03-29T13:00:56.104Z,8.62
2018-03-29T13:01:56.408Z,8.52
2018-03-29T13:02:56.436Z,8.47
2018-03-29T13:03:56.464Z,8.28
2018-03-29T13:04:56.487Z,8.29
2018-03-29T13:05:56.581Z,8.4
2018-03-29T13:06:56.277Z,8.39
2018-03-29T13:07:56.880Z,8.49
2018-03-29T13:08:57.978Z,8.52
2018-03-29T13:09:57.006Z,8.62
2018-03-29T13:10:57.735Z,8.72
2018-03-29T13:11:56.894Z,8.79
2018-03-29T13:12:56.850Z,8.9
2018-03-29T13:13:56.511Z,9.04
2018-03-29T13:14:57.255Z,9.24
2018-03-29T13:15:56.756Z,9.3
2018-03-29T13:16:56.781Z,9.47
2018-03-29T13:17:57.517Z,9.63
2018-03-29T13:18:57.601Z,9.57
2018-03-29T13:19:57.604Z,9.74
2018-03-29T13:20:57.271Z,9.8
2018-03-29T13:21:57.841Z,9.71
2018-03-29T13:22:57.135Z,9.67